Kezdőlap
METAR-TAF:

METAR-TAF

Repülőterek :

Sanford Regional Airport

Sanford, Maine, Amerikai Egyesült Államok

földrajzi szélesség: 43-24N, földrajzi hosszúság: 070-43W, magasság: 74 m

Jelenlegi meteorológiai megfigyelések

A jelentés 59 perccel ezelõtt készült, 09:56 UTC
Nyugat-északnyugati szél 19 kt széllökések: 30 kt
Hőmérséklet -13°C
Páratartalom 61%
Légköri nyomás 1008 hPa
Látótávolság: 16.1 km
Kevés felhő 3000 lábon
Szakadozott felhőzet 4000 lábon
Szakadozott felhőzet 4700 lábon
enyhe havazás

METAR: KSFM 020956Z AUTO 30019G30KT 10SM -SN FEW030 BKN040 BKN047 M13/M19 A2976 RMK AO2 PK WND 28036/0919 SNB52 SLP085 P0000 T11331194 FZRANO

Idő: 05:55 (10:55 UTC)


TAF: hiányzik

Meteorológiai megfigyelések és előrejelzések több, mint 4000 repülőtéren (METAR és TAF jelentéseket).

A térképen piros és sárga pontok jelzik az elérhető meteorológiai állomásokat.

Mozgassa az egeret a pont fölött, hogy megjelenjen az állomás neve.

Azután kattintson az időjárási megfigyelések és előrejelzések megtekintéséhez.

A térkép megváltoztatása: kattintson a fekete keresztel jelölt zöld gombra ráközelítéshez, a vonallal jelölt zöld gombra távolításhoz, vagy a zöld nyilakra a szomszédos térképek eléréséhez.


METAR-TAF: